createdAt,value
2022-09-23T00:00:46.068Z,9.50
2022-09-23T00:01:46.263Z,9.51
2022-09-23T00:02:46.162Z,9.42
2022-09-23T00:03:46.104Z,9.47
2022-09-23T00:04:46.116Z,9.35
2022-09-23T00:05:46.129Z,9.43
2022-09-23T00:06:46.143Z,9.35
2022-09-23T00:07:46.152Z,9.43
2022-09-23T00:08:46.164Z,9.47
2022-09-23T00:09:46.179Z,9.40
2022-09-23T00:10:46.190Z,9.40
2022-09-23T00:11:46.226Z,9.40
2022-09-23T00:12:46.321Z,9.43
2022-09-23T00:13:46.228Z,9.32
2022-09-23T00:14:46.238Z,9.36
2022-09-23T00:15:46.246Z,9.32
2022-09-23T00:16:46.316Z,9.21
2022-09-23T00:17:46.278Z,9.35
2022-09-23T00:18:46.285Z,9.24
2022-09-23T00:19:46.301Z,9.28
2022-09-23T00:20:46.309Z,9.23
2022-09-23T00:21:46.329Z,9.18
2022-09-23T00:22:46.336Z,9.15
2022-09-23T00:23:46.343Z,9.04
2022-09-23T00:24:46.363Z,9.10
2022-09-23T00:25:46.377Z,8.98
2022-09-23T00:26:46.392Z,8.95
2022-09-23T00:27:46.427Z,8.96
2022-09-23T00:28:46.412Z,9.01
2022-09-23T00:29:46.429Z,8.94
2022-09-23T00:30:46.531Z,8.96
2022-09-23T00:31:46.467Z,8.81
2022-09-23T00:32:46.462Z,8.86
2022-09-23T00:33:46.569Z,8.83
2022-09-23T00:34:46.487Z,8.80
2022-09-23T00:35:46.502Z,8.94
2022-09-23T00:36:46.510Z,8.96
2022-09-23T00:37:46.520Z,8.96
2022-09-23T00:38:46.532Z,8.96
2022-09-23T00:39:46.545Z,8.92
2022-09-23T00:40:46.605Z,8.95
2022-09-23T00:41:46.569Z,8.96
2022-09-23T00:42:46.579Z,9.01
2022-09-23T00:43:46.621Z,8.92
2022-09-23T00:44:46.610Z,8.92
2022-09-23T00:45:46.658Z,8.83
2022-09-23T00:46:46.639Z,8.83
2022-09-23T00:47:46.633Z,8.86
2022-09-23T00:48:46.650Z,8.86
2022-09-23T00:49:46.664Z,8.83
2022-09-23T00:50:46.672Z,8.80
2022-09-23T00:51:46.697Z,8.91
2022-09-23T00:52:46.695Z,8.89
2022-09-23T00:53:46.710Z,9.02
2022-09-23T00:54:46.717Z,8.99
2022-09-23T00:55:46.733Z,9.01
2022-09-23T00:56:46.747Z,8.98
2022-09-23T00:57:46.755Z,9.05
2022-09-23T00:58:46.766Z,9.10
2022-09-23T00:59:46.802Z,9.14
2022-09-23T01:00:46.797Z,9.04
2022-09-23T01:01:46.905Z,9.13
2022-09-23T01:02:46.862Z,9.08
2022-09-23T01:03:46.930Z,9.04
2022-09-23T01:04:46.845Z,9.04
2022-09-23T01:05:46.851Z,9.13
2022-09-23T01:06:46.875Z,9.11
2022-09-23T01:07:46.872Z,9.15
2022-09-23T01:08:46.986Z,9.18
2022-09-23T01:09:46.899Z,9.15
2022-09-23T01:10:46.908Z,9.13
2022-09-23T01:11:46.921Z,9.14
2022-09-23T01:12:46.935Z,9.13
2022-09-23T01:13:46.951Z,9.13
2022-09-23T01:14:46.957Z,9.13
2022-09-23T01:15:46.995Z,9.10
2022-09-23T01:16:47.001Z,8.95
2022-09-23T01:17:47.046Z,9.05
2022-09-23T01:18:47.009Z,8.98
2022-09-23T01:19:47.015Z,8.95
2022-09-23T01:20:47.030Z,8.91
2022-09-23T01:21:47.039Z,8.99
2022-09-23T01:22:47.050Z,8.95
2022-09-23T01:23:47.064Z,8.98
2022-09-23T01:24:47.086Z,8.94
2022-09-23T01:25:47.098Z,9.01
2022-09-23T01:26:47.098Z,8.94
2022-09-23T01:27:47.109Z,8.84
2022-09-23T01:28:47.122Z,8.81
2022-09-23T01:29:47.136Z,8.81
2022-09-23T01:30:47.281Z,8.96
2022-09-23T01:31:47.185Z,8.94
2022-09-23T01:32:47.169Z,9.02
2022-09-23T01:33:47.187Z,8.98
2022-09-23T01:34:47.191Z,8.95
2022-09-23T01:35:47.213Z,8.89
2022-09-23T01:36:47.221Z,8.91
2022-09-23T01:37:47.228Z,8.91
2022-09-23T01:38:47.243Z,8.84
2022-09-23T01:39:47.255Z,8.81
2022-09-23T01:40:47.335Z,8.83
2022-09-23T01:41:47.281Z,8.86
2022-09-23T01:42:47.288Z,8.79
2022-09-23T01:43:47.304Z,8.86
2022-09-23T01:44:47.314Z,8.80
2022-09-23T01:45:47.326Z,8.84
2022-09-23T01:46:47.338Z,8.76
2022-09-23T01:47:47.373Z,8.77
2022-09-23T01:48:47.408Z,8.79
2022-09-23T01:49:47.368Z,8.74
2022-09-23T01:50:47.383Z,8.74
2022-09-23T01:51:47.397Z,8.77
2022-09-23T01:52:47.409Z,8.79
2022-09-23T01:53:47.417Z,8.76
2022-09-23T01:54:47.429Z,8.74
2022-09-23T01:55:47.440Z,8.68
2022-09-23T01:56:47.454Z,8.71
2022-09-23T01:57:47.468Z,8.74
2022-09-23T01:58:47.477Z,8.76
2022-09-23T01:59:47.494Z,8.70
2022-09-23T02:00:47.500Z,8.66
2022-09-23T02:01:47.616Z,8.80
2022-09-23T02:02:47.577Z,8.74
2022-09-23T02:03:47.561Z,8.76
2022-09-23T02:04:47.546Z,8.74
2022-09-23T02:05:47.576Z,8.71
2022-09-23T02:06:47.570Z,8.76
2022-09-23T02:07:47.578Z,8.71
2022-09-23T02:08:47.596Z,8.74
2022-09-23T02:09:47.605Z,8.74
2022-09-23T02:10:47.624Z,8.70
2022-09-23T02:11:47.627Z,8.65
2022-09-23T02:12:47.638Z,8.68
2022-09-23T02:13:47.650Z,8.66
2022-09-23T02:14:47.670Z,8.71
2022-09-23T02:15:47.673Z,8.62
2022-09-23T02:16:47.774Z,8.59
2022-09-23T02:17:47.697Z,8.58
2022-09-23T02:18:47.709Z,8.58
2022-09-23T02:19:47.853Z,8.52
2022-09-23T02:20:47.732Z,8.56
2022-09-23T02:21:47.742Z,8.50
2022-09-23T02:22:47.756Z,8.50
2022-09-23T02:23:47.767Z,8.44
2022-09-23T02:24:47.882Z,8.44
2022-09-23T02:25:47.794Z,8.36
2022-09-23T02:26:47.801Z,8.41
2022-09-23T02:27:47.813Z,8.28
2022-09-23T02:28:47.824Z,8.33
2022-09-23T02:29:47.836Z,8.29
2022-09-23T02:30:47.848Z,8.28
2022-09-23T02:31:47.957Z,8.29
2022-09-23T02:32:47.869Z,8.29
2022-09-23T02:33:47.878Z,8.30
2022-09-23T02:34:47.900Z,8.30
2022-09-23T02:35:47.933Z,8.26
2022-09-23T02:36:47.926Z,8.29
2022-09-23T02:37:47.926Z,8.28
2022-09-23T02:38:47.934Z,8.28
2022-09-23T02:39:47.948Z,8.36
2022-09-23T02:40:48.092Z,8.33
2022-09-23T02:41:47.970Z,8.36
2022-09-23T02:42:47.981Z,8.41
2022-09-23T02:43:47.990Z,8.41
2022-09-23T02:44:48.003Z,8.33
2022-09-23T02:45:48.062Z,8.30
2022-09-23T02:46:48.024Z,8.40
2022-09-23T02:47:48.038Z,8.29
2022-09-23T02:48:48.048Z,8.37
2022-09-23T02:49:48.057Z,8.33
2022-09-23T02:50:48.069Z,8.40
2022-09-23T02:51:48.106Z,8.43
2022-09-23T02:52:48.096Z,8.38
2022-09-23T02:53:48.108Z,8.38
2022-09-23T02:54:48.115Z,8.38
2022-09-23T02:55:48.129Z,8.43
2022-09-23T02:56:48.135Z,8.38
2022-09-23T02:57:48.150Z,8.44
2022-09-23T02:58:48.169Z,8.38
2022-09-23T02:59:48.168Z,8.37
2022-09-23T03:00:48.228Z,8.40
2022-09-23T03:01:48.248Z,8.41
2022-09-23T03:02:48.203Z,8.43
2022-09-23T03:03:48.214Z,8.37
2022-09-23T03:04:48.230Z,8.43
2022-09-23T03:05:48.237Z,8.43
2022-09-23T03:06:48.245Z,8.37
2022-09-23T03:07:48.285Z,8.36
2022-09-23T03:08:48.272Z,8.43
2022-09-23T03:09:48.283Z,8.47
2022-09-23T03:10:48.302Z,8.41
2022-09-23T03:11:48.305Z,8.40
2022-09-23T03:12:48.315Z,8.36
2022-09-23T03:13:48.427Z,8.37
2022-09-23T03:14:48.341Z,8.38
2022-09-23T03:15:48.350Z,8.43
2022-09-23T03:16:48.414Z,8.40
2022-09-23T03:17:48.372Z,8.29
2022-09-23T03:18:48.382Z,8.33
2022-09-23T03:19:48.415Z,8.29
2022-09-23T03:20:48.406Z,8.30
2022-09-23T03:21:48.418Z,8.30
2022-09-23T03:22:48.430Z,8.33
2022-09-23T03:23:48.463Z,8.37
2022-09-23T03:24:51.949Z,8.33
2022-09-23T03:25:48.462Z,8.29
2022-09-23T03:26:48.473Z,8.28
2022-09-23T03:27:48.491Z,8.28
2022-09-23T03:28:48.503Z,8.30
2022-09-23T03:29:48.509Z,8.36
2022-09-23T03:30:48.518Z,8.26
2022-09-23T03:31:48.620Z,8.36
2022-09-23T03:32:48.540Z,8.23
2022-09-23T03:33:48.551Z,8.30
2022-09-23T03:34:48.561Z,8.33
2022-09-23T03:35:48.573Z,8.30
2022-09-23T03:36:48.650Z,8.34
2022-09-23T03:37:48.592Z,8.25
2022-09-23T03:38:48.602Z,8.23
2022-09-23T03:39:48.650Z,8.19
2022-09-23T03:40:48.712Z,8.26
2022-09-23T03:41:48.637Z,8.20
2022-09-23T03:42:48.645Z,8.19
2022-09-23T03:43:48.660Z,8.18
2022-09-23T03:44:48.674Z,8.19
2022-09-23T03:45:48.752Z,8.19
2022-09-23T03:46:48.697Z,8.08
2022-09-23T03:47:48.704Z,8.20
2022-09-23T03:48:48.722Z,8.19
2022-09-23T03:49:48.726Z,8.12
2022-09-23T03:50:48.738Z,8.16
2022-09-23T03:51:48.748Z,8.18
2022-09-23T03:52:48.761Z,8.15
2022-09-23T03:53:48.773Z,8.08
2022-09-23T03:54:48.781Z,8.18
2022-09-23T03:55:48.816Z,7.98
2022-09-23T03:56:48.804Z,8.02
2022-09-23T03:57:48.815Z,8.05
2022-09-23T03:58:48.833Z,8.00
2022-09-23T03:59:48.840Z,8.00
2022-09-23T04:00:48.930Z,8.00
2022-09-23T04:01:48.908Z,7.93
2022-09-23T04:02:48.869Z,8.00
2022-09-23T04:03:48.882Z,8.05
2022-09-23T04:04:48.900Z,8.02
2022-09-23T04:05:48.902Z,8.04
2022-09-23T04:06:48.916Z,8.07
2022-09-23T04:07:48.924Z,8.00
2022-09-23T04:08:48.934Z,8.02
2022-09-23T04:09:48.952Z,7.95
2022-09-23T04:10:52.879Z,8.02
2022-09-23T04:11:48.996Z,8.01
2022-09-23T04:12:48.978Z,8.04
2022-09-23T04:13:48.995Z,8.00
2022-09-23T04:14:49.002Z,8.04
2022-09-23T04:15:49.011Z,8.00
2022-09-23T04:16:49.056Z,8.04
2022-09-23T04:17:49.034Z,8.02
2022-09-23T04:18:49.050Z,8.00
2022-09-23T04:19:49.054Z,8.04
2022-09-23T04:20:49.073Z,7.97
2022-09-23T04:21:49.075Z,8.00
2022-09-23T04:22:49.086Z,8.00
2022-09-23T04:23:49.098Z,8.01
2022-09-23T04:24:49.109Z,7.89
2022-09-23T04:25:49.121Z,7.86
2022-09-23T04:26:49.131Z,7.98
2022-09-23T04:27:49.169Z,7.98
2022-09-23T04:28:49.154Z,7.95
2022-09-23T04:29:49.162Z,7.90
2022-09-23T04:30:49.178Z,7.87
2022-09-23T04:31:49.251Z,7.89
2022-09-23T04:32:49.195Z,7.87
2022-09-23T04:33:49.205Z,7.87
2022-09-23T04:34:49.224Z,7.83
2022-09-23T04:35:49.235Z,7.89
2022-09-23T04:36:49.238Z,7.89
2022-09-23T04:37:49.247Z,7.82
2022-09-23T04:38:49.257Z,7.89
2022-09-23T04:39:49.271Z,7.87
2022-09-23T04:40:49.336Z,7.83
2022-09-23T04:41:49.292Z,7.97
2022-09-23T04:42:49.299Z,7.87
2022-09-23T04:43:49.335Z,7.83
2022-09-23T04:44:49.322Z,7.87
2022-09-23T04:45:49.340Z,7.80
2022-09-23T04:46:49.465Z,7.80
2022-09-23T04:47:49.358Z,7.86
2022-09-23T04:48:49.366Z,7.80
2022-09-23T04:49:49.380Z,7.83
2022-09-23T04:50:49.393Z,7.80
2022-09-23T04:51:49.398Z,7.86
2022-09-23T04:52:49.419Z,7.85
2022-09-23T04:53:49.419Z,7.87
2022-09-23T04:54:49.435Z,7.80
2022-09-23T04:55:49.441Z,7.82
2022-09-23T04:56:49.452Z,7.79
2022-09-23T04:57:49.460Z,7.83
2022-09-23T04:58:49.470Z,7.80
2022-09-23T04:59:49.513Z,7.82
2022-09-23T05:00:49.571Z,7.82
2022-09-23T05:01:49.543Z,7.79
2022-09-23T05:02:49.513Z,7.80
2022-09-23T05:03:49.526Z,7.85
2022-09-23T05:04:49.535Z,7.82
2022-09-23T05:05:49.551Z,7.87
2022-09-23T05:06:49.557Z,7.87
2022-09-23T05:07:49.571Z,7.86
2022-09-23T05:08:49.579Z,7.87
2022-09-23T05:09:49.592Z,7.87
2022-09-23T05:10:49.601Z,7.90
2022-09-23T05:11:49.610Z,7.98
2022-09-23T05:12:53.567Z,7.97
2022-09-23T05:13:49.633Z,7.93
2022-09-23T05:14:49.642Z,7.89
2022-09-23T05:15:49.696Z,7.98
2022-09-23T05:16:49.664Z,7.95
2022-09-23T05:17:49.675Z,8.00
2022-09-23T05:18:49.684Z,7.95
2022-09-23T05:19:49.696Z,8.01
2022-09-23T05:20:49.704Z,7.98
2022-09-23T05:21:49.719Z,8.05
2022-09-23T05:22:49.731Z,7.97
2022-09-23T05:23:49.739Z,8.01
2022-09-23T05:24:49.749Z,8.01
2022-09-23T05:25:49.762Z,7.97
2022-09-23T05:26:49.772Z,8.02
2022-09-23T05:27:49.779Z,8.10
2022-09-23T05:28:49.807Z,8.01
2022-09-23T05:29:49.815Z,8.11
2022-09-23T05:30:49.810Z,8.15
2022-09-23T05:31:49.898Z,8.15
2022-09-23T05:32:49.840Z,8.12
2022-09-23T05:33:49.847Z,8.12
2022-09-23T05:34:49.861Z,8.12
2022-09-23T05:35:49.967Z,8.19
2022-09-23T05:36:49.878Z,8.16
2022-09-23T05:37:49.886Z,8.29
2022-09-23T05:38:50.200Z,8.22
2022-09-23T05:39:49.912Z,8.23
2022-09-23T05:40:50.013Z,8.18
2022-09-23T05:41:49.932Z,8.28
2022-09-23T05:42:49.940Z,8.22
2022-09-23T05:43:49.951Z,8.25
2022-09-23T05:44:49.963Z,8.33
2022-09-23T05:45:49.975Z,8.33
2022-09-23T05:46:50.064Z,8.28
2022-09-23T05:47:50.090Z,8.25
2022-09-23T05:48:50.011Z,8.33
2022-09-23T05:49:59.763Z,8.34
2022-09-23T05:50:50.027Z,8.30
2022-09-23T05:51:50.039Z,8.30
2022-09-23T05:52:50.050Z,8.28
2022-09-23T05:53:50.064Z,8.37
2022-09-23T05:54:50.086Z,8.26
2022-09-23T05:55:50.237Z,8.33
2022-09-23T05:56:50.092Z,8.33
2022-09-23T05:57:50.105Z,8.36
2022-09-23T05:58:50.124Z,8.28
2022-09-23T05:59:50.128Z,8.25
2022-09-23T06:00:50.140Z,8.36
2022-09-23T06:01:53.199Z,8.41
2022-09-23T06:02:50.267Z,8.34
2022-09-23T06:03:50.196Z,8.33
2022-09-23T06:04:50.182Z,8.28
2022-09-23T06:05:50.190Z,8.36
2022-09-23T06:06:50.203Z,8.36
2022-09-23T06:07:50.214Z,8.29
2022-09-23T06:08:50.231Z,8.29
2022-09-23T06:09:50.238Z,8.33
2022-09-23T06:10:54.350Z,8.34
2022-09-23T06:11:50.260Z,8.29
2022-09-23T06:12:50.346Z,8.33
2022-09-23T06:13:50.283Z,8.29
2022-09-23T06:14:50.293Z,8.40
2022-09-23T06:15:50.330Z,8.41
2022-09-23T06:16:50.316Z,8.40
2022-09-23T06:17:50.325Z,8.40
2022-09-23T06:18:50.335Z,8.44
2022-09-23T06:19:50.468Z,8.43
2022-09-23T06:20:50.359Z,8.38
2022-09-23T06:21:50.369Z,8.38
2022-09-23T06:22:54.175Z,8.44
2022-09-23T06:23:53.997Z,8.44
2022-09-23T06:24:50.400Z,8.41
2022-09-23T06:25:50.425Z,8.45
2022-09-23T06:26:50.451Z,8.47
2022-09-23T06:27:50.443Z,8.48
2022-09-23T06:28:50.444Z,8.50
2022-09-23T06:29:50.460Z,8.48
2022-09-23T06:30:50.465Z,8.50
2022-09-23T06:31:50.564Z,8.55
2022-09-23T06:32:50.493Z,8.52
2022-09-23T06:33:52.103Z,8.62
2022-09-23T06:34:52.063Z,8.58
2022-09-23T06:35:59.044Z,8.58
2022-09-23T06:36:50.533Z,8.58
2022-09-23T06:37:50.543Z,8.63
2022-09-23T06:38:50.570Z,8.59
2022-09-23T06:39:50.566Z,8.65
2022-09-23T06:40:50.645Z,8.61
2022-09-23T06:41:50.589Z,8.62
2022-09-23T06:42:52.434Z,8.65
2022-09-23T06:43:50.612Z,8.61
2022-09-23T06:44:50.620Z,8.61
2022-09-23T06:45:50.632Z,8.62
2022-09-23T06:46:50.693Z,8.62
2022-09-23T06:47:50.653Z,8.59
2022-09-23T06:48:50.665Z,8.63
2022-09-23T06:49:50.677Z,8.70
2022-09-23T06:50:50.686Z,8.71
2022-09-23T06:51:50.725Z,8.76
2022-09-23T06:52:50.818Z,8.76
2022-09-23T06:53:50.721Z,8.81
2022-09-23T06:54:50.734Z,8.81
2022-09-23T06:55:50.751Z,8.81
2022-09-23T06:56:50.757Z,8.92
2022-09-23T06:57:50.766Z,8.99
2022-09-23T06:58:50.776Z,9.04
2022-09-23T06:59:50.789Z,9.02
2022-09-23T07:00:50.798Z,9.11
2022-09-23T07:01:50.980Z,9.15
2022-09-23T07:02:50.870Z,9.17
2022-09-23T07:03:50.842Z,9.26
2022-09-23T07:04:50.843Z,9.35
2022-09-23T07:05:50.856Z,9.47
2022-09-23T07:06:50.866Z,9.57
2022-09-23T07:07:50.903Z,9.53
2022-09-23T07:08:50.892Z,9.54
2022-09-23T07:09:50.903Z,9.60
2022-09-23T07:10:50.921Z,9.60
2022-09-23T07:11:50.922Z,9.75
2022-09-23T07:12:50.934Z,9.75
2022-09-23T07:13:50.952Z,9.68
2022-09-23T07:14:51.060Z,9.69
2022-09-23T07:15:51.048Z,9.81
2022-09-23T07:16:50.975Z,9.90
2022-09-23T07:17:50.991Z,10.05
2022-09-23T07:18:51.012Z,9.97
2022-09-23T07:19:51.012Z,10.01
2022-09-23T07:20:51.029Z,9.91
2022-09-23T07:21:51.040Z,10.02
2022-09-23T07:22:51.048Z,9.81
2022-09-23T07:23:51.087Z,9.58
2022-09-23T07:24:51.067Z,9.61
2022-09-23T07:25:51.078Z,9.65
2022-09-23T07:26:51.092Z,9.81
2022-09-23T07:27:51.108Z,9.94
2022-09-23T07:28:51.116Z,10.05
2022-09-23T07:29:51.123Z,10.14
2022-09-23T07:30:59.608Z,10.26
2022-09-23T07:31:51.541Z,10.17
2022-09-23T07:32:51.243Z,10.29
2022-09-23T07:33:51.173Z,10.33
2022-09-23T07:34:51.199Z,10.33
2022-09-23T07:35:51.191Z,10.36
2022-09-23T07:36:51.205Z,10.33
2022-09-23T07:37:51.221Z,10.36
2022-09-23T07:38:51.335Z,10.34
2022-09-23T07:39:51.276Z,10.38
2022-09-23T07:40:51.337Z,10.47
2022-09-23T07:41:51.261Z,10.36
2022-09-23T07:42:51.271Z,10.51
2022-09-23T07:43:51.286Z,10.45
2022-09-23T07:44:51.297Z,10.52
2022-09-23T07:45:51.305Z,10.45
2022-09-23T07:46:51.383Z,10.56
2022-09-23T07:47:51.327Z,10.36
2022-09-23T07:48:51.355Z,10.33
2022-09-23T07:49:51.352Z,10.48
2022-09-23T07:50:51.365Z,10.52
2022-09-23T07:51:51.374Z,10.36
2022-09-23T07:52:51.392Z,10.36
2022-09-23T07:53:51.405Z,10.52
2022-09-23T07:54:51.411Z,10.41
2022-09-23T07:55:51.448Z,10.63
2022-09-23T07:56:51.433Z,10.64
2022-09-23T07:57:51.454Z,10.82
2022-09-23T07:58:51.562Z,10.76
2022-09-23T07:59:51.466Z,10.84
2022-09-23T08:00:51.480Z,10.91
2022-09-23T08:01:51.589Z,11.11
2022-09-23T08:02:53.085Z,11.00
2022-09-23T08:03:51.520Z,11.03
2022-09-23T08:04:51.533Z,11.06
2022-09-23T08:05:51.553Z,11.02
2022-09-23T08:06:51.550Z,11.10
2022-09-23T08:07:51.561Z,11.00
2022-09-23T08:08:53.437Z,11.02
2022-09-23T08:09:51.590Z,11.10
2022-09-23T08:10:51.600Z,11.19
2022-09-23T08:11:51.635Z,11.19
2022-09-23T08:12:51.625Z,11.17
2022-09-23T08:13:51.639Z,11.21
2022-09-23T08:14:51.647Z,11.17
2022-09-23T08:15:55.371Z,11.17
2022-09-23T08:16:51.672Z,11.18
2022-09-23T08:17:51.688Z,11.32
2022-09-23T08:18:51.777Z,11.51
2022-09-23T08:19:51.711Z,11.54
2022-09-23T08:20:51.720Z,11.49
2022-09-23T08:21:51.736Z,11.49
2022-09-23T08:22:51.748Z,11.51
2022-09-23T08:23:51.778Z,11.49
2022-09-23T08:24:52.843Z,11.54
2022-09-23T08:25:51.784Z,11.52
2022-09-23T08:26:51.794Z,11.47
2022-09-23T08:27:51.852Z,11.49
2022-09-23T08:28:51.823Z,11.55
2022-09-23T08:29:51.834Z,11.62
2022-09-23T08:30:51.885Z,11.67
2022-09-23T08:31:51.863Z,11.85
2022-09-23T08:32:51.871Z,11.96
2022-09-23T08:33:51.884Z,11.99
2022-09-23T08:34:51.893Z,12.12
2022-09-23T08:35:51.921Z,12.31
2022-09-23T08:36:52.023Z,12.29
2022-09-23T08:37:51.935Z,12.52
2022-09-23T08:38:51.947Z,12.77
2022-09-23T08:39:51.958Z,12.41
2022-09-23T08:40:51.969Z,12.31
2022-09-23T08:41:56.067Z,12.07
2022-09-23T08:42:51.999Z,12.20
2022-09-23T08:43:52.031Z,11.96
2022-09-23T08:44:52.019Z,12.14
2022-09-23T08:45:52.087Z,12.13
2022-09-23T08:46:52.047Z,12.28
2022-09-23T08:47:52.063Z,12.19
2022-09-23T08:48:52.072Z,12.32
2022-09-23T08:49:52.094Z,12.47
2022-09-23T08:50:52.096Z,12.21
2022-09-23T08:51:52.117Z,12.28
2022-09-23T08:52:52.121Z,12.28
2022-09-23T08:53:52.138Z,12.27
2022-09-23T08:54:55.399Z,12.13
2022-09-23T08:55:52.164Z,12.09
2022-09-23T08:56:52.177Z,12.12
2022-09-23T08:58:14.035Z,12.05
2022-09-23T08:58:52.206Z,11.80
2022-09-23T08:59:52.241Z,11.62
2022-09-23T09:00:52.228Z,11.82
2022-09-23T09:01:52.345Z,12.09
2022-09-23T09:02:52.321Z,12.04
2022-09-23T09:03:52.267Z,12.02
2022-09-23T09:04:52.280Z,12.16
2022-09-23T09:05:54.462Z,12.21
2022-09-23T09:06:54.375Z,12.19
2022-09-23T09:07:52.422Z,12.13
2022-09-23T09:08:52.332Z,12.05
2022-09-23T09:09:52.346Z,12.14
2022-09-23T09:10:52.356Z,12.19
2022-09-23T09:11:52.374Z,12.46
2022-09-23T09:12:52.388Z,12.65
2022-09-23T09:13:52.398Z,12.56
2022-09-23T09:14:52.418Z,12.47
2022-09-23T09:15:55.199Z,12.37
2022-09-23T09:17:00.691Z,12.52
2022-09-23T09:17:52.517Z,12.45
2022-09-23T09:18:52.466Z,12.13
2022-09-23T09:19:52.507Z,12.41
2022-09-23T09:20:52.492Z,12.57
2022-09-23T09:21:52.506Z,12.82
2022-09-23T09:22:52.565Z,12.74
2022-09-23T09:23:52.539Z,13.22
2022-09-23T09:24:52.552Z,13.22
2022-09-23T09:25:52.565Z,13.30
2022-09-23T09:26:52.581Z,13.14
2022-09-23T09:27:52.588Z,13.08
2022-09-23T09:28:52.596Z,13.07
2022-09-23T09:29:52.613Z,13.14
2022-09-23T09:30:52.698Z,13.42
2022-09-23T09:31:52.671Z,13.46
2022-09-23T09:32:52.674Z,13.39
2022-09-23T09:33:52.676Z,13.64
2022-09-23T09:34:52.678Z,13.81
2022-09-23T09:35:52.691Z,13.71
2022-09-23T09:36:52.706Z,14.12
2022-09-23T09:37:53.511Z,14.21
2022-09-23T09:38:52.732Z,14.69
2022-09-23T09:39:52.744Z,14.57
2022-09-23T09:40:52.810Z,13.75
2022-09-23T09:41:52.771Z,14.06
2022-09-23T09:42:52.835Z,14.20
2022-09-23T09:43:52.798Z,14.40
2022-09-23T09:44:52.822Z,14.33
2022-09-23T09:45:57.534Z,14.12
2022-09-23T09:46:52.920Z,14.21
2022-09-23T09:47:52.882Z,13.99
2022-09-23T09:48:52.870Z,14.18
2022-09-23T09:49:52.888Z,14.33
2022-09-23T09:50:52.901Z,14.54
2022-09-23T09:51:52.918Z,14.07
2022-09-23T09:52:52.880Z,14.32
2022-09-23T09:53:52.890Z,14.45
2022-09-23T09:54:52.899Z,14.51
2022-09-23T09:55:52.918Z,14.86
2022-09-23T09:56:52.948Z,14.80
2022-09-23T09:57:52.943Z,15.03
2022-09-23T09:58:52.968Z,15.29
2022-09-23T09:59:52.971Z,15.51
2022-09-23T10:00:52.993Z,15.53
2022-09-23T10:01:53.044Z,15.65
2022-09-23T10:02:53.017Z,15.75
2022-09-23T10:03:55.683Z,15.86
2022-09-23T10:04:53.100Z,16.00
2022-09-23T10:05:53.059Z,16.21
2022-09-23T10:06:53.074Z,16.34
2022-09-23T10:07:53.097Z,16.60
2022-09-23T10:08:53.105Z,16.58
2022-09-23T10:09:55.771Z,16.78
2022-09-23T10:10:53.130Z,16.85
2022-09-23T10:11:53.148Z,16.93
2022-09-23T10:12:53.163Z,16.88
2022-09-23T10:13:53.176Z,17.01
2022-09-23T10:14:53.199Z,17.18
2022-09-23T10:15:53.208Z,17.04
2022-09-23T10:16:53.268Z,16.83
2022-09-23T10:17:53.237Z,16.97
2022-09-23T10:18:53.256Z,16.61
2022-09-23T10:19:53.292Z,16.43
2022-09-23T10:20:53.282Z,16.58
2022-09-23T10:21:53.302Z,16.63
2022-09-23T10:22:53.317Z,16.93
2022-09-23T10:23:53.333Z,17.03
2022-09-23T10:24:53.354Z,17.23
2022-09-23T10:25:53.366Z,17.49
2022-09-23T10:26:53.383Z,17.52
2022-09-23T10:27:53.397Z,17.30
2022-09-23T10:28:53.419Z,17.51
2022-09-23T10:29:53.431Z,17.55
2022-09-23T10:30:53.490Z,17.72
2022-09-23T10:31:53.463Z,17.30
2022-09-23T10:32:53.481Z,17.46
2022-09-23T10:33:53.495Z,17.64
2022-09-23T10:34:53.507Z,17.75
2022-09-23T10:35:53.559Z,17.96
2022-09-23T10:36:53.545Z,18.18
2022-09-23T10:37:53.565Z,18.35
2022-09-23T10:38:53.578Z,18.41
2022-09-23T10:39:53.594Z,18.30
2022-09-23T10:40:53.795Z,17.82
2022-09-23T10:41:53.689Z,17.06
2022-09-23T10:42:53.663Z,17.21
2022-09-23T10:43:53.662Z,17.25
2022-09-23T10:44:53.684Z,17.21
2022-09-23T10:45:53.751Z,16.82
2022-09-23T10:46:53.718Z,17.12
2022-09-23T10:47:53.732Z,17.25
2022-09-23T10:48:53.752Z,17.25
2022-09-23T10:49:53.764Z,17.04
2022-09-23T10:50:53.787Z,17.46
2022-09-23T10:51:53.830Z,17.30
2022-09-23T10:52:53.819Z,17.55
2022-09-23T10:53:53.841Z,17.89
2022-09-23T10:54:53.852Z,18.17
2022-09-23T10:55:53.875Z,18.17
2022-09-23T10:56:53.890Z,18.42
2022-09-23T10:57:53.909Z,18.52
2022-09-23T10:58:53.923Z,18.70
2022-09-23T10:59:53.950Z,18.15
2022-09-23T11:00:54.112Z,17.68
2022-09-23T11:01:54.065Z,17.79
2022-09-23T11:02:53.995Z,17.86
2022-09-23T11:03:54.009Z,17.97
2022-09-23T11:04:54.204Z,18.14
2022-09-23T11:05:54.043Z,18.07
2022-09-23T11:06:54.065Z,17.75
2022-09-23T11:07:54.105Z,17.21
2022-09-23T11:08:54.101Z,17.19
2022-09-23T11:09:54.119Z,17.51
2022-09-23T11:10:54.132Z,17.08
2022-09-23T11:11:54.153Z,17.52
2022-09-23T11:12:54.172Z,17.78
2022-09-23T11:13:54.877Z,17.52
2022-09-23T11:14:54.205Z,17.79
2022-09-23T11:15:54.222Z,18.15
2022-09-23T11:16:54.269Z,17.90
2022-09-23T11:17:54.307Z,17.51
2022-09-23T11:18:54.276Z,17.70
2022-09-23T11:19:54.303Z,17.89
2022-09-23T11:20:54.311Z,18.00
2022-09-23T11:21:54.330Z,17.77
2022-09-23T11:22:54.354Z,17.99
2022-09-23T11:23:54.394Z,18.05
2022-09-23T11:24:54.384Z,17.99
2022-09-23T11:25:54.404Z,17.71
2022-09-23T11:26:54.423Z,17.64
2022-09-23T11:27:54.441Z,17.92
2022-09-23T11:28:54.454Z,18.20
2022-09-23T11:29:54.475Z,18.47
2022-09-23T11:30:54.559Z,18.91
2022-09-23T11:31:59.308Z,18.27
2022-09-23T11:32:54.625Z,18.29
2022-09-23T11:33:54.544Z,17.96
2022-09-23T11:34:55.166Z,17.89
2022-09-23T11:35:54.581Z,18.14
2022-09-23T11:36:54.600Z,18.62
2022-09-23T11:37:54.613Z,18.65
2022-09-23T11:38:54.631Z,18.45
2022-09-23T11:39:54.714Z,18.80
2022-09-23T11:40:54.918Z,18.95
2022-09-23T11:41:54.688Z,18.37
2022-09-23T11:42:54.719Z,18.72
2022-09-23T11:43:54.722Z,18.98
2022-09-23T11:44:54.738Z,19.13
2022-09-23T11:45:54.785Z,18.84
2022-09-23T11:46:54.773Z,19.14
2022-09-23T11:47:54.794Z,19.21
2022-09-23T11:48:54.811Z,19.02
2022-09-23T11:49:54.835Z,19.14
2022-09-23T11:50:54.849Z,19.29
2022-09-23T11:51:54.870Z,19.68
2022-09-23T11:52:54.884Z,19.56
2022-09-23T11:53:54.905Z,19.40
2022-09-23T11:54:54.919Z,18.72
2022-09-23T11:55:58.182Z,18.90
2022-09-23T11:56:54.960Z,18.14
2022-09-23T11:57:54.978Z,17.92
2022-09-23T11:58:57.761Z,18.32
2022-09-23T11:59:55.055Z,18.44
2022-09-23T12:01:00.382Z,18.21
2022-09-23T12:01:55.367Z,17.89
2022-09-23T12:03:04.252Z,17.92
2022-09-23T12:03:55.235Z,18.17
2022-09-23T12:04:58.134Z,18.14
2022-09-23T12:05:55.205Z,18.52
2022-09-23T12:06:55.142Z,18.90
2022-09-23T12:07:55.161Z,19.21
2022-09-23T12:08:55.179Z,19.37
2022-09-23T12:09:58.556Z,19.19
2022-09-23T12:10:55.213Z,19.00
2022-09-23T12:11:55.261Z,19.48
2022-09-23T12:12:55.250Z,19.83
2022-09-23T12:13:55.274Z,18.65
2022-09-23T12:14:55.334Z,18.21
2022-09-23T12:15:55.309Z,18.73
2022-09-23T12:16:55.512Z,19.25
2022-09-23T12:17:55.347Z,19.28
2022-09-23T12:18:55.363Z,19.32
2022-09-23T12:19:55.384Z,19.37
2022-09-23T12:20:55.413Z,19.94
2022-09-23T12:21:55.425Z,20.38
2022-09-23T12:22:55.449Z,20.36
2022-09-23T12:23:55.459Z,20.24
2022-09-23T12:24:55.482Z,19.68
2022-09-23T12:25:55.507Z,18.14
2022-09-23T12:26:55.520Z,18.00
2022-09-23T12:27:55.557Z,18.41
2022-09-23T12:28:55.555Z,18.82
2022-09-23T12:29:55.576Z,18.91
2022-09-23T12:30:55.663Z,19.11
2022-09-23T12:31:55.606Z,19.47
2022-09-23T12:32:55.630Z,19.56
2022-09-23T12:33:55.645Z,18.72
2022-09-23T12:34:55.669Z,18.11
2022-09-23T12:35:55.688Z,17.95
2022-09-23T12:36:55.704Z,18.48
2022-09-23T12:37:55.728Z,18.85
2022-09-23T12:38:55.743Z,19.18
2022-09-23T12:39:55.757Z,19.39
2022-09-23T12:40:55.782Z,19.25
2022-09-23T12:41:55.798Z,18.51
2022-09-23T12:42:55.817Z,19.00
2022-09-23T12:43:55.856Z,19.39
2022-09-23T12:44:55.851Z,19.77
2022-09-23T12:45:55.903Z,19.99
2022-09-23T12:46:55.887Z,20.02
2022-09-23T12:47:55.909Z,19.73
2022-09-23T12:48:55.947Z,19.86
2022-09-23T12:49:55.950Z,20.26
2022-09-23T12:50:55.968Z,19.21
2022-09-23T12:51:55.992Z,19.13
2022-09-23T12:52:56.013Z,19.40
2022-09-23T12:53:56.023Z,19.86
2022-09-23T12:54:56.039Z,20.11
2022-09-23T12:55:56.068Z,20.51
2022-09-23T12:56:56.080Z,21.12
2022-09-23T12:57:56.098Z,21.10
2022-09-23T12:58:56.118Z,21.28
2022-09-23T12:59:56.212Z,21.24
2022-09-23T13:00:56.250Z,20.21
2022-09-23T13:01:56.294Z,20.02
2022-09-23T13:02:56.196Z,19.83
2022-09-23T13:03:56.219Z,19.65
2022-09-23T13:04:56.234Z,19.66
2022-09-23T13:05:56.260Z,18.94
2022-09-23T13:06:56.278Z,19.04
2022-09-23T13:07:56.301Z,19.41